createdAt,value
2022-12-25T00:01:58.322Z,20.80
2022-12-25T00:07:05.512Z,20.90
2022-12-25T00:12:12.741Z,20.90
2022-12-25T00:17:19.945Z,20.80
2022-12-25T00:22:27.099Z,20.90
2022-12-25T00:27:34.341Z,20.90
2022-12-25T00:32:41.555Z,20.80
2022-12-25T00:37:48.739Z,20.80
2022-12-25T00:42:55.917Z,20.90
2022-12-25T00:48:03.133Z,20.80
2022-12-25T00:53:10.275Z,20.80
2022-12-25T00:58:17.442Z,20.80
2022-12-25T01:03:24.749Z,20.80
2022-12-25T01:08:31.819Z,20.80
2022-12-25T01:13:39.102Z,20.80
2022-12-25T01:18:46.349Z,20.80
2022-12-25T01:23:53.597Z,20.80
2022-12-25T01:29:00.797Z,20.80
2022-12-25T01:34:08.039Z,20.70
2022-12-25T01:39:15.202Z,20.70
2022-12-25T01:44:22.429Z,20.70
2022-12-25T01:49:29.682Z,20.70
2022-12-25T01:54:36.832Z,20.70
2022-12-25T01:59:44.033Z,20.70
2022-12-25T02:04:51.215Z,20.70
2022-12-25T02:09:58.409Z,20.70
2022-12-25T02:15:06.418Z,20.60
2022-12-25T02:20:12.823Z,20.70
2022-12-25T02:25:20.011Z,20.70
2022-12-25T02:30:27.220Z,20.70
2022-12-25T02:35:34.457Z,20.70
2022-12-25T02:40:41.642Z,20.60
2022-12-25T02:45:48.846Z,20.70
2022-12-25T02:50:56.081Z,20.60
2022-12-25T02:56:03.315Z,20.60
2022-12-25T03:01:10.632Z,20.60
2022-12-25T03:06:17.724Z,20.60
2022-12-25T03:11:24.924Z,20.60
2022-12-25T03:16:32.237Z,20.60
2022-12-25T03:21:39.397Z,20.60
2022-12-25T03:26:46.546Z,20.60
2022-12-25T03:31:53.781Z,20.60
2022-12-25T03:37:01.015Z,20.60
2022-12-25T03:42:08.194Z,20.50
2022-12-25T03:47:15.439Z,20.50
2022-12-25T03:52:22.722Z,20.50
2022-12-25T03:57:29.894Z,20.50
2022-12-25T04:02:37.316Z,20.50
2022-12-25T04:07:44.381Z,20.50
2022-12-25T04:12:51.533Z,20.50
2022-12-25T04:17:58.729Z,20.50
2022-12-25T04:23:05.990Z,20.50
2022-12-25T04:28:13.105Z,20.50
2022-12-25T04:33:20.333Z,20.50
2022-12-25T04:38:27.571Z,20.50
2022-12-25T04:43:34.767Z,20.50
2022-12-25T04:48:41.980Z,20.50
2022-12-25T04:53:49.195Z,20.50
2022-12-25T04:58:56.362Z,20.40
2022-12-25T05:04:03.529Z,20.50
2022-12-25T05:09:10.804Z,20.40
2022-12-25T05:14:18.012Z,20.40
2022-12-25T05:19:25.251Z,20.50
2022-12-25T05:24:32.510Z,20.40
2022-12-25T05:29:39.727Z,20.40
2022-12-25T05:34:47.095Z,20.40
2022-12-25T05:39:54.286Z,20.40
2022-12-25T05:45:01.408Z,20.40
2022-12-25T05:50:08.570Z,20.40
2022-12-25T05:55:15.767Z,20.40
2022-12-25T06:00:22.970Z,20.30
2022-12-25T06:05:30.176Z,20.30
2022-12-25T06:10:37.368Z,20.40
2022-12-25T06:15:44.512Z,20.40
2022-12-25T06:20:51.739Z,20.40
2022-12-25T06:25:58.967Z,20.30
2022-12-25T06:31:06.213Z,20.30
2022-12-25T06:36:13.350Z,20.30
2022-12-25T06:41:20.940Z,20.30
2022-12-25T06:46:28.096Z,20.30
2022-12-25T06:51:35.243Z,20.30
2022-12-25T06:56:42.523Z,20.30
2022-12-25T07:01:49.927Z,20.30
2022-12-25T07:06:56.917Z,20.30
2022-12-25T07:12:04.116Z,20.30
2022-12-25T07:17:11.284Z,20.30
2022-12-25T07:22:18.520Z,20.20
2022-12-25T07:27:25.732Z,20.30
2022-12-25T07:32:32.927Z,20.20
2022-12-25T07:37:40.078Z,20.20
2022-12-25T07:42:47.283Z,20.20
2022-12-25T07:47:55.217Z,20.20
2022-12-25T07:53:01.651Z,20.20
2022-12-25T07:58:08.860Z,20.30
2022-12-25T08:03:16.281Z,20.20
2022-12-25T08:08:23.221Z,20.20
2022-12-25T08:13:30.470Z,20.20
2022-12-25T08:18:37.683Z,20.30
2022-12-25T08:23:44.898Z,20.20
2022-12-25T08:28:52.226Z,20.20
2022-12-25T08:33:59.467Z,20.20
2022-12-25T08:39:06.684Z,20.20
2022-12-25T08:44:13.914Z,20.20
2022-12-25T08:49:21.076Z,20.20
2022-12-25T08:54:28.258Z,20.10
2022-12-25T08:59:35.489Z,20.10
2022-12-25T09:04:42.685Z,20.10
2022-12-25T09:09:49.861Z,20.10
2022-12-25T09:14:57.128Z,20.10
2022-12-25T09:20:04.257Z,20.10
2022-12-25T09:25:11.409Z,20.10
2022-12-25T09:30:18.650Z,20.10
2022-12-25T09:35:25.855Z,20.10
2022-12-25T09:40:33.064Z,20.10
2022-12-25T09:45:40.298Z,20.10
2022-12-25T09:50:47.474Z,20.10
2022-12-25T09:55:54.688Z,20.10
2022-12-25T10:01:01.891Z,20.10
2022-12-25T10:06:09.075Z,20.10
2022-12-25T10:11:16.301Z,20.10
2022-12-25T10:16:23.631Z,20.10
2022-12-25T10:21:30.781Z,20.10
2022-12-25T10:26:38.023Z,20.10
2022-12-25T10:31:45.264Z,20.10
2022-12-25T10:36:52.491Z,20.10
2022-12-25T10:41:59.730Z,20.00
2022-12-25T10:47:06.982Z,20.00
2022-12-25T10:52:14.195Z,20.00
2022-12-25T10:57:21.454Z,20.10
2022-12-25T11:02:29.001Z,20.00
2022-12-25T11:07:35.998Z,20.00
2022-12-25T11:12:43.227Z,20.00
2022-12-25T11:17:50.476Z,20.00
2022-12-25T11:22:57.634Z,20.10
2022-12-25T11:28:04.812Z,20.00
2022-12-25T11:33:12.107Z,20.00
2022-12-25T11:38:19.271Z,20.00
2022-12-25T11:43:26.460Z,20.10
2022-12-25T11:48:33.644Z,20.20
2022-12-25T11:53:40.850Z,20.30
2022-12-25T11:58:48.083Z,20.50
2022-12-25T12:03:55.651Z,20.80
2022-12-25T12:09:02.571Z,20.80
2022-12-25T12:14:09.840Z,21.00
2022-12-25T12:19:17.140Z,21.00
2022-12-25T12:24:24.382Z,21.10
2022-12-25T12:29:31.603Z,21.30
2022-12-25T12:34:38.869Z,21.50
2022-12-25T12:39:46.130Z,21.50
2022-12-25T12:44:53.306Z,21.70
2022-12-25T12:50:00.580Z,21.70
2022-12-25T12:55:07.777Z,21.80
2022-12-25T13:00:15.032Z,21.90
2022-12-25T13:05:22.221Z,21.90
2022-12-25T13:10:29.451Z,22.10
2022-12-25T13:15:36.654Z,22.20
2022-12-25T13:20:43.911Z,22.20
2022-12-25T13:25:51.164Z,22.30
2022-12-25T13:30:58.389Z,22.40
2022-12-25T13:36:05.648Z,22.40
2022-12-25T13:41:12.881Z,22.50
2022-12-25T13:46:20.155Z,22.50
2022-12-25T13:51:27.302Z,22.50
2022-12-25T13:56:34.494Z,22.60
2022-12-25T14:01:41.937Z,22.60
2022-12-25T14:06:48.995Z,22.70
2022-12-25T14:11:56.241Z,22.80
2022-12-25T14:17:03.555Z,22.80
2022-12-25T14:22:10.704Z,22.70
2022-12-25T14:27:17.909Z,22.80
2022-12-25T14:32:25.151Z,22.70
2022-12-25T14:37:32.361Z,22.70
2022-12-25T14:42:39.528Z,22.70
2022-12-25T14:47:46.774Z,22.70
2022-12-25T14:52:54.236Z,22.80
2022-12-25T14:58:01.355Z,22.70
2022-12-25T15:03:08.670Z,22.80
2022-12-25T15:08:15.801Z,22.80
2022-12-25T15:13:23.001Z,22.90
2022-12-25T15:18:30.185Z,22.80
2022-12-25T15:23:37.493Z,22.90
2022-12-25T15:28:44.623Z,22.90
2022-12-25T15:33:51.945Z,22.80
2022-12-25T15:38:59.173Z,22.80
2022-12-25T15:44:06.375Z,22.80
2022-12-25T15:49:13.557Z,22.80
2022-12-25T15:54:20.858Z,22.90
2022-12-25T15:59:28.027Z,22.90
2022-12-25T16:04:35.227Z,22.90
2022-12-25T16:09:42.552Z,22.90
2022-12-25T16:14:49.689Z,23.00
2022-12-25T16:19:56.952Z,23.10
2022-12-25T16:25:04.258Z,23.10
2022-12-25T16:30:11.482Z,23.20
2022-12-25T16:35:18.680Z,23.20
2022-12-25T16:40:25.912Z,23.20
2022-12-25T16:45:33.126Z,23.40
2022-12-25T16:50:40.299Z,23.40
2022-12-25T16:55:47.564Z,23.50
2022-12-25T17:00:54.681Z,23.60
2022-12-25T17:06:01.887Z,23.60
2022-12-25T17:11:09.109Z,23.60
2022-12-25T17:16:16.394Z,23.60
2022-12-25T17:21:23.524Z,23.60
2022-12-25T17:26:30.780Z,23.60
2022-12-25T17:31:38.085Z,23.70
2022-12-25T17:36:45.299Z,23.80
2022-12-25T17:41:52.484Z,23.70
2022-12-25T17:46:59.821Z,23.70
2022-12-25T17:52:06.852Z,23.70
2022-12-25T17:57:14.151Z,23.70
2022-12-25T18:02:21.449Z,23.60
2022-12-25T18:07:28.579Z,23.50
2022-12-25T18:12:35.844Z,23.50
2022-12-25T18:17:43.058Z,23.40
2022-12-25T18:22:50.272Z,23.30
2022-12-25T18:27:57.510Z,23.30
2022-12-25T18:33:04.725Z,23.30
2022-12-25T18:38:11.884Z,23.20
2022-12-25T18:43:19.112Z,23.20
2022-12-25T18:48:26.301Z,23.10
2022-12-25T18:53:33.515Z,23.20
2022-12-25T18:58:40.781Z,23.30
2022-12-25T19:03:47.940Z,23.30
2022-12-25T19:08:55.387Z,23.30
2022-12-25T19:14:02.636Z,23.20
2022-12-25T19:19:09.838Z,23.20
2022-12-25T19:24:17.054Z,23.30
2022-12-25T19:29:24.464Z,23.30
2022-12-25T19:34:31.678Z,23.20
2022-12-25T19:39:39.173Z,23.20
2022-12-25T19:44:46.654Z,23.20
2022-12-25T19:49:56.413Z,23.20
2022-12-25T19:55:01.092Z,23.20
2022-12-25T20:00:08.332Z,23.10
2022-12-25T20:05:15.639Z,23.10
2022-12-25T20:10:22.976Z,23.10
2022-12-25T20:15:30.244Z,23.10
2022-12-25T20:20:37.454Z,23.10
2022-12-25T20:25:44.688Z,23.10
2022-12-25T20:30:51.951Z,23.00
2022-12-25T20:35:59.118Z,23.10
2022-12-25T20:46:13.801Z,23.10
2022-12-25T20:51:21.071Z,23.10
2022-12-25T20:56:28.272Z,23.10
2022-12-25T21:01:35.602Z,23.10
2022-12-25T21:06:42.672Z,23.00
2022-12-25T21:11:49.986Z,23.00
2022-12-25T21:16:57.274Z,23.00
2022-12-25T21:22:04.435Z,22.90
2022-12-25T21:27:11.689Z,22.90
2022-12-25T21:32:18.920Z,22.90
2022-12-25T21:37:26.117Z,22.90
2022-12-25T21:42:33.297Z,23.00
2022-12-25T21:48:01.335Z,23.00
2022-12-25T21:52:47.706Z,23.00
2022-12-25T21:57:54.962Z,23.00
2022-12-25T22:03:02.316Z,23.00
2022-12-25T22:08:09.312Z,23.00
2022-12-25T22:13:16.576Z,23.00
2022-12-25T22:18:23.727Z,23.00
2022-12-25T22:23:30.939Z,22.90
2022-12-25T22:28:38.155Z,22.90
2022-12-25T22:33:45.395Z,22.90
2022-12-25T22:38:52.568Z,22.90
2022-12-25T22:44:17.199Z,22.90
2022-12-25T22:49:06.995Z,22.90
2022-12-25T22:54:14.234Z,22.90
2022-12-25T22:59:21.473Z,22.90
2022-12-25T23:04:28.711Z,23.00
2022-12-25T23:09:35.990Z,23.00
2022-12-25T23:14:43.239Z,23.00
2022-12-25T23:19:50.496Z,23.00
2022-12-25T23:24:57.719Z,22.90
2022-12-25T23:30:09.771Z,22.90
2022-12-25T23:35:17.000Z,22.90
2022-12-25T23:40:24.220Z,22.90
2022-12-25T23:45:31.465Z,22.90
2022-12-25T23:50:38.681Z,22.80
2022-12-25T23:55:51.535Z,22.80
